sensor_id;sensor_type;location;lat;lon;timestamp;temperature;humidity
8684;DHT22;4379;59.744;18.206;2023-05-21T00:02:16;3.90;99.90
8684;DHT22;4379;59.744;18.206;2023-05-21T00:04:46;3.90;99.90
8684;DHT22;4379;59.744;18.206;2023-05-21T00:07:13;3.80;99.90
8684;DHT22;4379;59.744;18.206;2023-05-21T00:09:41;3.80;99.90
8684;DHT22;4379;59.744;18.206;2023-05-21T00:12:09;3.90;99.90
8684;DHT22;4379;59.744;18.206;2023-05-21T00:14:36;3.80;99.90
8684;DHT22;4379;59.744;18.206;2023-05-21T00:17:04;3.80;99.90
8684;DHT22;4379;59.744;18.206;2023-05-21T00:19:35;3.80;99.90
8684;DHT22;4379;59.744;18.206;2023-05-21T00:22:03;3.80;99.90
8684;DHT22;4379;59.744;18.206;2023-05-21T00:24:30;3.90;99.90
8684;DHT22;4379;59.744;18.206;2023-05-21T00:27:01;3.80;99.90
8684;DHT22;4379;59.744;18.206;2023-05-21T00:29:28;3.80;99.90
8684;DHT22;4379;59.744;18.206;2023-05-21T00:31:56;3.70;99.90
8684;DHT22;4379;59.744;18.206;2023-05-21T00:34:24;3.70;99.90
8684;DHT22;4379;59.744;18.206;2023-05-21T00:36:52;3.70;99.90
8684;DHT22;4379;59.744;18.206;2023-05-21T00:39:22;3.70;99.90
8684;DHT22;4379;59.744;18.206;2023-05-21T00:41:50;3.70;99.90
8684;DHT22;4379;59.744;18.206;2023-05-21T00:44:17;3.70;99.90
8684;DHT22;4379;59.744;18.206;2023-05-21T00:46:45;3.60;99.90
8684;DHT22;4379;59.744;18.206;2023-05-21T00:49:15;3.60;99.90
8684;DHT22;4379;59.744;18.206;2023-05-21T00:51:43;3.60;99.90
8684;DHT22;4379;59.744;18.206;2023-05-21T00:54:11;3.60;99.90
8684;DHT22;4379;59.744;18.206;2023-05-21T00:56:39;3.50;99.90
8684;DHT22;4379;59.744;18.206;2023-05-21T00:59:06;3.50;99.90
8684;DHT22;4379;59.744;18.206;2023-05-21T01:01:34;3.50;99.90
8684;DHT22;4379;59.744;18.206;2023-05-21T01:04:03;3.50;99.90
8684;DHT22;4379;59.744;18.206;2023-05-21T01:06:31;3.40;99.90
8684;DHT22;4379;59.744;18.206;2023-05-21T01:09:01;3.40;99.90
8684;DHT22;4379;59.744;18.206;2023-05-21T01:11:43;3.40;99.90
8684;DHT22;4379;59.744;18.206;2023-05-21T01:14:15;3.40;99.90
8684;DHT22;4379;59.744;18.206;2023-05-21T01:16:44;3.30;99.90
8684;DHT22;4379;59.744;18.206;2023-05-21T01:19:18;3.40;99.90
8684;DHT22;4379;59.744;18.206;2023-05-21T01:21:52;3.30;99.90
8684;DHT22;4379;59.744;18.206;2023-05-21T01:24:22;3.20;99.90
8684;DHT22;4379;59.744;18.206;2023-05-21T01:26:52;3.20;99.90
8684;DHT22;4379;59.744;18.206;2023-05-21T01:29:19;3.20;99.90
8684;DHT22;4379;59.744;18.206;2023-05-21T01:32:19;3.20;99.90
8684;DHT22;4379;59.744;18.206;2023-05-21T01:34:58;3.20;99.90
8684;DHT22;4379;59.744;18.206;2023-05-21T01:37:32;3.10;99.90
8684;DHT22;4379;59.744;18.206;2023-05-21T01:40:10;3.20;99.90
8684;DHT22;4379;59.744;18.206;2023-05-21T01:42:41;3.20;99.90
8684;DHT22;4379;59.744;18.206;2023-05-21T01:45:12;3.30;99.90
8684;DHT22;4379;59.744;18.206;2023-05-21T01:47:44;3.20;99.90
8684;DHT22;4379;59.744;18.206;2023-05-21T01:50:14;3.20;99.90
8684;DHT22;4379;59.744;18.206;2023-05-21T01:52:48;3.20;99.90
8684;DHT22;4379;59.744;18.206;2023-05-21T01:55:17;3.20;99.90
8684;DHT22;4379;59.744;18.206;2023-05-21T01:57:45;3.20;99.90
8684;DHT22;4379;59.744;18.206;2023-05-21T02:00:13;3.20;99.90
8684;DHT22;4379;59.744;18.206;2023-05-21T02:02:44;3.20;99.90
8684;DHT22;4379;59.744;18.206;2023-05-21T02:05:11;3.20;99.90
8684;DHT22;4379;59.744;18.206;2023-05-21T02:07:39;3.30;99.90
8684;DHT22;4379;59.744;18.206;2023-05-21T02:10:07;3.20;99.90
8684;DHT22;4379;59.744;18.206;2023-05-21T02:12:34;3.20;99.90
8684;DHT22;4379;59.744;18.206;2023-05-21T02:15:02;3.20;99.90
8684;DHT22;4379;59.744;18.206;2023-05-21T02:17:30;3.30;99.90
8684;DHT22;4379;59.744;18.206;2023-05-21T02:20:00;3.30;99.90
8684;DHT22;4379;59.744;18.206;2023-05-21T02:22:41;3.40;99.90
8684;DHT22;4379;59.744;18.206;2023-05-21T02:25:10;3.40;99.90
8684;DHT22;4379;59.744;18.206;2023-05-21T02:27:39;3.40;99.90
8684;DHT22;4379;59.744;18.206;2023-05-21T02:30:10;3.50;99.90
8684;DHT22;4379;59.744;18.206;2023-05-21T02:32:38;3.50;99.90
8684;DHT22;4379;59.744;18.206;2023-05-21T02:35:10;3.50;99.90
8684;DHT22;4379;59.744;18.206;2023-05-21T02:37:38;3.50;99.90
8684;DHT22;4379;59.744;18.206;2023-05-21T02:40:07;3.50;99.90
8684;DHT22;4379;59.744;18.206;2023-05-21T02:42:37;3.50;99.90
8684;DHT22;4379;59.744;18.206;2023-05-21T02:45:10;3.50;99.90
8684;DHT22;4379;59.744;18.206;2023-05-21T02:47:38;3.50;99.90
8684;DHT22;4379;59.744;18.206;2023-05-21T02:50:06;3.60;99.90
8684;DHT22;4379;59.744;18.206;2023-05-21T02:52:34;3.60;99.90
8684;DHT22;4379;59.744;18.206;2023-05-21T02:55:02;3.60;99.90
8684;DHT22;4379;59.744;18.206;2023-05-21T02:57:29;3.70;99.90
8684;DHT22;4379;59.744;18.206;2023-05-21T02:59:57;3.80;99.90
8684;DHT22;4379;59.744;18.206;2023-05-21T03:02:24;3.80;99.90
8684;DHT22;4379;59.744;18.206;2023-05-21T03:04:52;3.90;99.90
8684;DHT22;4379;59.744;18.206;2023-05-21T03:07:20;3.90;99.90
8684;DHT22;4379;59.744;18.206;2023-05-21T03:09:47;4.00;99.90
8684;DHT22;4379;59.744;18.206;2023-05-21T03:12:15;4.10;99.90
8684;DHT22;4379;59.744;18.206;2023-05-21T03:14:42;4.10;99.90
8684;DHT22;4379;59.744;18.206;2023-05-21T03:17:12;4.10;99.90
8684;DHT22;4379;59.744;18.206;2023-05-21T03:19:41;4.20;99.90
8684;DHT22;4379;59.744;18.206;2023-05-21T03:22:10;4.30;99.90
8684;DHT22;4379;59.744;18.206;2023-05-21T03:24:38;4.30;99.90
8684;DHT22;4379;59.744;18.206;2023-05-21T03:27:06;4.40;99.90
8684;DHT22;4379;59.744;18.206;2023-05-21T03:29:34;4.40;99.90
8684;DHT22;4379;59.744;18.206;2023-05-21T03:32:02;4.50;99.90
8684;DHT22;4379;59.744;18.206;2023-05-21T03:34:30;4.50;99.90
8684;DHT22;4379;59.744;18.206;2023-05-21T03:37:00;4.50;99.90
8684;DHT22;4379;59.744;18.206;2023-05-21T03:39:27;4.60;99.90
8684;DHT22;4379;59.744;18.206;2023-05-21T03:41:55;4.60;99.90
8684;DHT22;4379;59.744;18.206;2023-05-21T03:44:22;4.60;99.90
8684;DHT22;4379;59.744;18.206;2023-05-21T03:46:50;4.70;99.90
8684;DHT22;4379;59.744;18.206;2023-05-21T03:49:19;4.90;99.90
8684;DHT22;4379;59.744;18.206;2023-05-21T03:51:46;5.00;99.90
8684;DHT22;4379;59.744;18.206;2023-05-21T03:54:14;5.10;99.90
8684;DHT22;4379;59.744;18.206;2023-05-21T03:56:41;5.30;99.90
8684;DHT22;4379;59.744;18.206;2023-05-21T03:59:09;5.40;99.90
8684;DHT22;4379;59.744;18.206;2023-05-21T04:01:36;5.50;99.90
8684;DHT22;4379;59.744;18.206;2023-05-21T04:04:05;5.80;99.90
8684;DHT22;4379;59.744;18.206;2023-05-21T04:06:32;5.90;99.90
8684;DHT22;4379;59.744;18.206;2023-05-21T04:09:00;6.00;99.90
8684;DHT22;4379;59.744;18.206;2023-05-21T04:11:30;6.30;99.90
8684;DHT22;4379;59.744;18.206;2023-05-21T04:13:58;6.50;99.90
8684;DHT22;4379;59.744;18.206;2023-05-21T04:16:26;6.60;99.90
8684;DHT22;4379;59.744;18.206;2023-05-21T04:18:53;7.00;99.90
8684;DHT22;4379;59.744;18.206;2023-05-21T04:21:21;7.30;99.90
8684;DHT22;4379;59.744;18.206;2023-05-21T04:23:49;7.70;99.90
8684;DHT22;4379;59.744;18.206;2023-05-21T04:26:16;8.20;99.90
8684;DHT22;4379;59.744;18.206;2023-05-21T04:28:44;9.40;99.90
8684;DHT22;4379;59.744;18.206;2023-05-21T04:31:12;11.40;99.90
8684;DHT22;4379;59.744;18.206;2023-05-21T04:33:39;13.10;99.90
8684;DHT22;4379;59.744;18.206;2023-05-21T04:36:12;14.00;99.90
8684;DHT22;4379;59.744;18.206;2023-05-21T04:38:39;15.40;99.90
8684;DHT22;4379;59.744;18.206;2023-05-21T04:41:08;17.40;99.90
8684;DHT22;4379;59.744;18.206;2023-05-21T04:43:37;19.30;99.90
8684;DHT22;4379;59.744;18.206;2023-05-21T04:46:04;20.50;99.90
8684;DHT22;4379;59.744;18.206;2023-05-21T04:48:32;21.90;99.90
8684;DHT22;4379;59.744;18.206;2023-05-21T04:50:59;21.90;99.90
8684;DHT22;4379;59.744;18.206;2023-05-21T04:53:27;22.00;99.90
8684;DHT22;4379;59.744;18.206;2023-05-21T04:55:55;21.50;99.90
8684;DHT22;4379;59.744;18.206;2023-05-21T04:58:25;20.30;99.90
8684;DHT22;4379;59.744;18.206;2023-05-21T05:00:54;19.10;99.90
8684;DHT22;4379;59.744;18.206;2023-05-21T05:03:22;18.40;99.90
8684;DHT22;4379;59.744;18.206;2023-05-21T05:05:49;17.80;99.90
8684;DHT22;4379;59.744;18.206;2023-05-21T05:08:17;17.60;99.90
8684;DHT22;4379;59.744;18.206;2023-05-21T05:10:45;17.10;99.90
8684;DHT22;4379;59.744;18.206;2023-05-21T05:13:12;16.80;99.90
8684;DHT22;4379;59.744;18.206;2023-05-21T05:15:40;17.30;99.90
8684;DHT22;4379;59.744;18.206;2023-05-21T05:18:08;18.20;99.90
8684;DHT22;4379;59.744;18.206;2023-05-21T05:20:38;19.70;99.90
8684;DHT22;4379;59.744;18.206;2023-05-21T05:23:05;20.90;99.90
8684;DHT22;4379;59.744;18.206;2023-05-21T05:25:36;23.30;99.90
8684;DHT22;4379;59.744;18.206;2023-05-21T05:28:04;26.00;99.90
8684;DHT22;4379;59.744;18.206;2023-05-21T05:30:31;27.80;99.90
8684;DHT22;4379;59.744;18.206;2023-05-21T05:32:59;29.00;99.90
8684;DHT22;4379;59.744;18.206;2023-05-21T05:35:27;30.10;97.80
8684;DHT22;4379;59.744;18.206;2023-05-21T05:37:54;30.70;95.30
8684;DHT22;4379;59.744;18.206;2023-05-21T05:40:21;30.80;94.40
8684;DHT22;4379;59.744;18.206;2023-05-21T05:42:49;30.30;95.30
8684;DHT22;4379;59.744;18.206;2023-05-21T05:45:19;29.40;93.30
8684;DHT22;4379;59.744;18.206;2023-05-21T05:47:46;31.20;93.30
8684;DHT22;4379;59.744;18.206;2023-05-21T05:50:14;32.80;91.90
8684;DHT22;4379;59.744;18.206;2023-05-21T05:52:41;30.50;91.70
8684;DHT22;4379;59.744;18.206;2023-05-21T05:55:09;29.00;93.00
8684;DHT22;4379;59.744;18.206;2023-05-21T05:57:38;31.10;91.10
8684;DHT22;4379;59.744;18.206;2023-05-21T06:00:06;31.60;90.80
8684;DHT22;4379;59.744;18.206;2023-05-21T06:02:35;33.50;88.60
8684;DHT22;4379;59.744;18.206;2023-05-21T06:05:04;34.80;84.20
8684;DHT22;4379;59.744;18.206;2023-05-21T06:07:33;34.30;84.30
8684;DHT22;4379;59.744;18.206;2023-05-21T06:10:00;35.50;83.40
8684;DHT22;4379;59.744;18.206;2023-05-21T06:12:27;36.90;80.00
8684;DHT22;4379;59.744;18.206;2023-05-21T06:14:55;37.60;79.70
8684;DHT22;4379;59.744;18.206;2023-05-21T06:17:22;36.50;77.50
8684;DHT22;4379;59.744;18.206;2023-05-21T06:19:50;37.10;76.30
8684;DHT22;4379;59.744;18.206;2023-05-21T06:22:18;34.50;75.50
8684;DHT22;4379;59.744;18.206;2023-05-21T06:24:45;32.40;79.60
8684;DHT22;4379;59.744;18.206;2023-05-21T06:27:13;32.30;79.50
8684;DHT22;4379;59.744;18.206;2023-05-21T06:29:41;29.70;84.10
8684;DHT22;4379;59.744;18.206;2023-05-21T06:32:08;28.00;83.60
8684;DHT22;4379;59.744;18.206;2023-05-21T06:34:38;26.70;88.10
8684;DHT22;4379;59.744;18.206;2023-05-21T06:37:05;25.90;88.80
8684;DHT22;4379;59.744;18.206;2023-05-21T06:39:33;26.80;87.50
8684;DHT22;4379;59.744;18.206;2023-05-21T06:42:02;26.80;89.60
8684;DHT22;4379;59.744;18.206;2023-05-21T06:44:30;29.60;85.10
8684;DHT22;4379;59.744;18.206;2023-05-21T06:46:57;31.60;81.20
8684;DHT22;4379;59.744;18.206;2023-05-21T06:49:25;33.40;80.60
8684;DHT22;4379;59.744;18.206;2023-05-21T06:51:52;33.60;79.00
8684;DHT22;4379;59.744;18.206;2023-05-21T06:54:20;35.50;77.90
8684;DHT22;4379;59.744;18.206;2023-05-21T06:56:47;37.50;74.70
8684;DHT22;4379;59.744;18.206;2023-05-21T06:59:15;36.90;73.30
8684;DHT22;4379;59.744;18.206;2023-05-21T07:01:43;35.60;74.50
8684;DHT22;4379;59.744;18.206;2023-05-21T07:04:10;34.30;72.40
8684;DHT22;4379;59.744;18.206;2023-05-21T07:06:38;34.70;77.00
8684;DHT22;4379;59.744;18.206;2023-05-21T07:09:06;35.70;72.10
8684;DHT22;4379;59.744;18.206;2023-05-21T07:11:33;36.00;73.20
8684;DHT22;4379;59.744;18.206;2023-05-21T07:14:01;37.40;72.00
8684;DHT22;4379;59.744;18.206;2023-05-21T07:16:29;34.80;75.40
8684;DHT22;4379;59.744;18.206;2023-05-21T07:19:00;36.90;73.20
8684;DHT22;4379;59.744;18.206;2023-05-21T07:21:28;36.60;73.90
8684;DHT22;4379;59.744;18.206;2023-05-21T07:23:55;35.70;74.30
8684;DHT22;4379;59.744;18.206;2023-05-21T07:26:23;35.70;75.60
8684;DHT22;4379;59.744;18.206;2023-05-21T07:28:50;36.90;73.80
8684;DHT22;4379;59.744;18.206;2023-05-21T07:31:18;38.00;71.10
8684;DHT22;4379;59.744;18.206;2023-05-21T07:33:45;39.30;70.50
8684;DHT22;4379;59.744;18.206;2023-05-21T07:36:14;38.20;71.70
8684;DHT22;4379;59.744;18.206;2023-05-21T07:38:43;39.20;70.30
8684;DHT22;4379;59.744;18.206;2023-05-21T07:41:10;36.70;70.90
8684;DHT22;4379;59.744;18.206;2023-05-21T07:43:38;37.60;69.50
8684;DHT22;4379;59.744;18.206;2023-05-21T07:46:05;38.90;67.50
8684;DHT22;4379;59.744;18.206;2023-05-21T07:48:33;39.40;68.40
8684;DHT22;4379;59.744;18.206;2023-05-21T07:51:02;37.80;70.10
8684;DHT22;4379;59.744;18.206;2023-05-21T07:53:30;38.00;70.70
8684;DHT22;4379;59.744;18.206;2023-05-21T07:55:59;38.70;70.30
8684;DHT22;4379;59.744;18.206;2023-05-21T07:58:27;38.50;70.00
8684;DHT22;4379;59.744;18.206;2023-05-21T08:00:54;38.00;69.50
8684;DHT22;4379;59.744;18.206;2023-05-21T08:03:22;37.50;67.20
8684;DHT22;4379;59.744;18.206;2023-05-21T08:05:49;34.60;70.40
8684;DHT22;4379;59.744;18.206;2023-05-21T08:08:18;35.50;68.90
8684;DHT22;4379;59.744;18.206;2023-05-21T08:10:46;35.10;67.90
8684;DHT22;4379;59.744;18.206;2023-05-21T08:13:15;32.30;71.30
8684;DHT22;4379;59.744;18.206;2023-05-21T08:15:43;32.20;73.20
8684;DHT22;4379;59.744;18.206;2023-05-21T08:18:10;31.50;72.80
8684;DHT22;4379;59.744;18.206;2023-05-21T08:20:38;31.90;74.20
8684;DHT22;4379;59.744;18.206;2023-05-21T08:23:06;32.80;73.80
8684;DHT22;4379;59.744;18.206;2023-05-21T08:25:33;32.80;72.60
8684;DHT22;4379;59.744;18.206;2023-05-21T08:28:01;32.80;73.30
8684;DHT22;4379;59.744;18.206;2023-05-21T08:30:29;32.40;76.10
8684;DHT22;4379;59.744;18.206;2023-05-21T08:32:56;31.30;73.70
8684;DHT22;4379;59.744;18.206;2023-05-21T08:35:25;31.00;78.20
8684;DHT22;4379;59.744;18.206;2023-05-21T08:37:52;30.50;76.60
8684;DHT22;4379;59.744;18.206;2023-05-21T08:40:19;29.30;76.00
8684;DHT22;4379;59.744;18.206;2023-05-21T08:42:48;28.00;76.00
8684;DHT22;4379;59.744;18.206;2023-05-21T08:45:22;27.40;79.10
8684;DHT22;4379;59.744;18.206;2023-05-21T08:47:55;26.90;82.70
8684;DHT22;4379;59.744;18.206;2023-05-21T08:50:26;26.00;82.80
8684;DHT22;4379;59.744;18.206;2023-05-21T08:52:53;26.90;83.60
8684;DHT22;4379;59.744;18.206;2023-05-21T08:55:21;25.90;82.00
8684;DHT22;4379;59.744;18.206;2023-05-21T08:57:49;25.90;84.90
8684;DHT22;4379;59.744;18.206;2023-05-21T09:00:20;25.90;84.60
8684;DHT22;4379;59.744;18.206;2023-05-21T09:02:47;25.80;82.40
8684;DHT22;4379;59.744;18.206;2023-05-21T09:05:17;24.30;85.80
8684;DHT22;4379;59.744;18.206;2023-05-21T09:08:06;24.70;88.60
8684;DHT22;4379;59.744;18.206;2023-05-21T09:10:37;23.90;88.40
8684;DHT22;4379;59.744;18.206;2023-05-21T09:13:05;23.60;87.20
8684;DHT22;4379;59.744;18.206;2023-05-21T09:15:34;23.90;88.60
8684;DHT22;4379;59.744;18.206;2023-05-21T09:18:03;22.80;88.00
8684;DHT22;4379;59.744;18.206;2023-05-21T09:20:31;21.90;88.30
8684;DHT22;4379;59.744;18.206;2023-05-21T09:23:02;22.30;90.10
8684;DHT22;4379;59.744;18.206;2023-05-21T09:25:31;22.20;87.40
8684;DHT22;4379;59.744;18.206;2023-05-21T09:27:58;22.50;87.40
8684;DHT22;4379;59.744;18.206;2023-05-21T09:30:26;23.20;88.50
8684;DHT22;4379;59.744;18.206;2023-05-21T09:33:02;23.60;86.70
8684;DHT22;4379;59.744;18.206;2023-05-21T09:35:29;24.90;85.40
8684;DHT22;4379;59.744;18.206;2023-05-21T09:37:57;25.00;89.40
8684;DHT22;4379;59.744;18.206;2023-05-21T09:40:25;25.40;88.00
8684;DHT22;4379;59.744;18.206;2023-05-21T09:42:53;25.60;85.40
8684;DHT22;4379;59.744;18.206;2023-05-21T09:47:51;24.70;86.20
8684;DHT22;4379;59.744;18.206;2023-05-21T09:50:22;24.00;86.90
8684;DHT22;4379;59.744;18.206;2023-05-21T09:52:50;24.70;90.50
8684;DHT22;4379;59.744;18.206;2023-05-21T09:55:22;24.70;86.70
8684;DHT22;4379;59.744;18.206;2023-05-21T09:57:50;24.20;87.10
8684;DHT22;4379;59.744;18.206;2023-05-21T10:00:20;23.40;88.00
8684;DHT22;4379;59.744;18.206;2023-05-21T10:03:00;23.40;89.10
8684;DHT22;4379;59.744;18.206;2023-05-21T10:05:28;23.40;90.20
8684;DHT22;4379;59.744;18.206;2023-05-21T10:08:00;23.40;91.90
8684;DHT22;4379;59.744;18.206;2023-05-21T10:10:31;23.30;89.50
8684;DHT22;4379;59.744;18.206;2023-05-21T10:13:07;23.40;85.80
8684;DHT22;4379;59.744;18.206;2023-05-21T10:15:42;23.40;84.30
8684;DHT22;4379;59.744;18.206;2023-05-21T10:18:12;23.90;85.00
8684;DHT22;4379;59.744;18.206;2023-05-21T10:20:40;24.10;84.70
8684;DHT22;4379;59.744;18.206;2023-05-21T10:23:09;24.40;85.20
8684;DHT22;4379;59.744;18.206;2023-05-21T10:25:36;24.40;82.00
8684;DHT22;4379;59.744;18.206;2023-05-21T10:28:05;24.70;86.80
8684;DHT22;4379;59.744;18.206;2023-05-21T10:30:33;24.20;82.80
8684;DHT22;4379;59.744;18.206;2023-05-21T10:33:03;24.40;84.50
8684;DHT22;4379;59.744;18.206;2023-05-21T10:35:32;24.30;82.30
8684;DHT22;4379;59.744;18.206;2023-05-21T10:38:03;23.70;84.20
8684;DHT22;4379;59.744;18.206;2023-05-21T10:40:31;23.90;85.20
8684;DHT22;4379;59.744;18.206;2023-05-21T10:43:14;23.90;82.70
8684;DHT22;4379;59.744;18.206;2023-05-21T10:46:24;24.20;87.30
8684;DHT22;4379;59.744;18.206;2023-05-21T11:00:18;23.20;90.30
8684;DHT22;4379;59.744;18.206;2023-05-21T11:02:47;24.20;91.10
8684;DHT22;4379;59.744;18.206;2023-05-21T11:05:37;23.70;91.30
8684;DHT22;4379;59.744;18.206;2023-05-21T11:10:53;24.10;91.50
8684;DHT22;4379;59.744;18.206;2023-05-21T11:13:28;24.20;91.80
8684;DHT22;4379;59.744;18.206;2023-05-21T11:16:14;24.00;91.90
8684;DHT22;4379;59.744;18.206;2023-05-21T11:21:17;24.40;91.10
8684;DHT22;4379;59.744;18.206;2023-05-21T11:23:54;23.70;92.50
8684;DHT22;4379;59.744;18.206;2023-05-21T11:26:26;23.90;91.90
8684;DHT22;4379;59.744;18.206;2023-05-21T11:29:07;22.90;91.70
8684;DHT22;4379;59.744;18.206;2023-05-21T11:31:35;23.10;93.50
8684;DHT22;4379;59.744;18.206;2023-05-21T11:34:18;23.30;92.70
8684;DHT22;4379;59.744;18.206;2023-05-21T11:36:48;23.50;91.60
8684;DHT22;4379;59.744;18.206;2023-05-21T11:39:17;23.20;92.70
8684;DHT22;4379;59.744;18.206;2023-05-21T11:42:04;23.20;92.90
8684;DHT22;4379;59.744;18.206;2023-05-21T11:44:42;23.60;93.00
8684;DHT22;4379;59.744;18.206;2023-05-21T11:47:14;23.70;92.70
8684;DHT22;4379;59.744;18.206;2023-05-21T11:49:42;22.60;92.80
8684;DHT22;4379;59.744;18.206;2023-05-21T11:52:11;22.30;93.80
8684;DHT22;4379;59.744;18.206;2023-05-21T11:54:41;22.30;94.70
8684;DHT22;4379;59.744;18.206;2023-05-21T11:57:10;21.50;93.80
8684;DHT22;4379;59.744;18.206;2023-05-21T11:59:38;21.60;94.60
8684;DHT22;4379;59.744;18.206;2023-05-21T12:02:05;22.00;94.50
8684;DHT22;4379;59.744;18.206;2023-05-21T12:04:35;22.20;93.30
8684;DHT22;4379;59.744;18.206;2023-05-21T12:07:06;22.50;93.60
8684;DHT22;4379;59.744;18.206;2023-05-21T12:09:39;22.70;93.40
8684;DHT22;4379;59.744;18.206;2023-05-21T12:12:07;22.30;93.20
8684;DHT22;4379;59.744;18.206;2023-05-21T12:14:36;22.10;94.10
8684;DHT22;4379;59.744;18.206;2023-05-21T12:17:04;22.20;94.20
8684;DHT22;4379;59.744;18.206;2023-05-21T12:19:36;22.40;93.50
8684;DHT22;4379;59.744;18.206;2023-05-21T12:22:05;22.20;93.90
8684;DHT22;4379;59.744;18.206;2023-05-21T12:24:33;22.90;93.80
8684;DHT22;4379;59.744;18.206;2023-05-21T12:27:03;22.90;93.00
8684;DHT22;4379;59.744;18.206;2023-05-21T12:29:36;22.90;93.30
8684;DHT22;4379;59.744;18.206;2023-05-21T12:32:07;22.90;92.60
8684;DHT22;4379;59.744;18.206;2023-05-21T12:34:40;22.30;93.40
8684;DHT22;4379;59.744;18.206;2023-05-21T12:37:15;22.10;93.80
8684;DHT22;4379;59.744;18.206;2023-05-21T12:39:44;22.30;94.60
8684;DHT22;4379;59.744;18.206;2023-05-21T12:42:13;22.60;95.60
8684;DHT22;4379;59.744;18.206;2023-05-21T12:44:46;22.40;93.50
8684;DHT22;4379;59.744;18.206;2023-05-21T12:47:13;22.10;93.80
8684;DHT22;4379;59.744;18.206;2023-05-21T12:49:44;22.00;94.40
8684;DHT22;4379;59.744;18.206;2023-05-21T12:52:13;22.00;95.40
8684;DHT22;4379;59.744;18.206;2023-05-21T12:54:45;22.30;94.50
8684;DHT22;4379;59.744;18.206;2023-05-21T12:57:15;22.30;94.20
8684;DHT22;4379;59.744;18.206;2023-05-21T12:59:57;22.70;93.30
8684;DHT22;4379;59.744;18.206;2023-05-21T13:02:26;22.50;93.50
8684;DHT22;4379;59.744;18.206;2023-05-21T13:07:29;22.30;93.60
8684;DHT22;4379;59.744;18.206;2023-05-21T13:09:57;22.60;93.80
8684;DHT22;4379;59.744;18.206;2023-05-21T13:12:26;22.60;93.30
8684;DHT22;4379;59.744;18.206;2023-05-21T13:14:55;22.40;93.30
8684;DHT22;4379;59.744;18.206;2023-05-21T13:17:24;22.30;94.00
8684;DHT22;4379;59.744;18.206;2023-05-21T13:20:12;21.90;93.30
8684;DHT22;4379;59.744;18.206;2023-05-21T13:22:49;22.20;93.50
8684;DHT22;4379;59.744;18.206;2023-05-21T13:25:18;22.40;93.50
8684;DHT22;4379;59.744;18.206;2023-05-21T13:27:49;22.10;93.80
8684;DHT22;4379;59.744;18.206;2023-05-21T13:30:17;22.40;93.60
8684;DHT22;4379;59.744;18.206;2023-05-21T13:32:45;22.70;94.10
8684;DHT22;4379;59.744;18.206;2023-05-21T13:35:13;22.50;93.80
8684;DHT22;4379;59.744;18.206;2023-05-21T13:37:43;22.40;93.70
8684;DHT22;4379;59.744;18.206;2023-05-21T13:40:13;22.50;93.80
8684;DHT22;4379;59.744;18.206;2023-05-21T13:42:43;22.40;93.30
8684;DHT22;4379;59.744;18.206;2023-05-21T13:45:13;22.70;93.30
8684;DHT22;4379;59.744;18.206;2023-05-21T13:47:43;22.20;94.00
8684;DHT22;4379;59.744;18.206;2023-05-21T13:50:11;22.40;94.60
8684;DHT22;4379;59.744;18.206;2023-05-21T13:52:39;22.40;94.50
8684;DHT22;4379;59.744;18.206;2023-05-21T13:55:11;22.10;94.10
8684;DHT22;4379;59.744;18.206;2023-05-21T13:57:38;22.10;95.20
8684;DHT22;4379;59.744;18.206;2023-05-21T14:00:07;21.90;94.80
8684;DHT22;4379;59.744;18.206;2023-05-21T14:02:41;22.00;95.30
8684;DHT22;4379;59.744;18.206;2023-05-21T14:05:10;22.30;96.20
8684;DHT22;4379;59.744;18.206;2023-05-21T14:07:38;22.60;95.40
8684;DHT22;4379;59.744;18.206;2023-05-21T14:10:06;22.70;95.50
8684;DHT22;4379;59.744;18.206;2023-05-21T14:12:34;22.70;95.20
8684;DHT22;4379;59.744;18.206;2023-05-21T14:15:01;22.60;94.50
8684;DHT22;4379;59.744;18.206;2023-05-21T14:17:29;22.60;95.10
8684;DHT22;4379;59.744;18.206;2023-05-21T14:19:56;22.50;94.70
8684;DHT22;4379;59.744;18.206;2023-05-21T14:22:24;22.60;94.90
8684;DHT22;4379;59.744;18.206;2023-05-21T14:24:54;22.50;94.60
8684;DHT22;4379;59.744;18.206;2023-05-21T14:27:22;22.40;95.40
8684;DHT22;4379;59.744;18.206;2023-05-21T14:29:50;22.20;94.90
8684;DHT22;4379;59.744;18.206;2023-05-21T14:32:17;22.40;94.70
8684;DHT22;4379;59.744;18.206;2023-05-21T14:34:45;22.40;95.20
8684;DHT22;4379;59.744;18.206;2023-05-21T14:37:13;22.30;95.10
8684;DHT22;4379;59.744;18.206;2023-05-21T14:39:40;22.10;94.50
8684;DHT22;4379;59.744;18.206;2023-05-21T14:42:07;21.90;94.70
8684;DHT22;4379;59.744;18.206;2023-05-21T14:44:35;22.00;95.20
8684;DHT22;4379;59.744;18.206;2023-05-21T14:47:03;21.90;95.00
8684;DHT22;4379;59.744;18.206;2023-05-21T14:49:30;21.90;94.80
8684;DHT22;4379;59.744;18.206;2023-05-21T14:51:58;21.80;95.00
8684;DHT22;4379;59.744;18.206;2023-05-21T14:54:25;22.00;95.00
8684;DHT22;4379;59.744;18.206;2023-05-21T14:56:53;22.00;94.60
8684;DHT22;4379;59.744;18.206;2023-05-21T14:59:21;21.80;94.90
8684;DHT22;4379;59.744;18.206;2023-05-21T15:01:49;21.90;94.70
8684;DHT22;4379;59.744;18.206;2023-05-21T15:04:17;21.60;95.80
8684;DHT22;4379;59.744;18.206;2023-05-21T15:06:44;21.80;95.40
8684;DHT22;4379;59.744;18.206;2023-05-21T15:09:12;21.90;95.50
8684;DHT22;4379;59.744;18.206;2023-05-21T15:11:42;22.00;95.60
8684;DHT22;4379;59.744;18.206;2023-05-21T15:14:12;22.00;95.70
8684;DHT22;4379;59.744;18.206;2023-05-21T15:16:39;21.90;95.30
8684;DHT22;4379;59.744;18.206;2023-05-21T15:19:07;21.90;96.30
8684;DHT22;4379;59.744;18.206;2023-05-21T15:21:37;22.10;96.00
8684;DHT22;4379;59.744;18.206;2023-05-21T15:24:05;22.10;95.50
8684;DHT22;4379;59.744;18.206;2023-05-21T15:26:35;22.10;95.40
8684;DHT22;4379;59.744;18.206;2023-05-21T15:29:02;22.00;95.30
8684;DHT22;4379;59.744;18.206;2023-05-21T15:31:31;22.10;96.00
8684;DHT22;4379;59.744;18.206;2023-05-21T15:33:58;21.80;95.20
8684;DHT22;4379;59.744;18.206;2023-05-21T15:36:26;21.60;95.70
8684;DHT22;4379;59.744;18.206;2023-05-21T15:38:56;21.70;96.10
8684;DHT22;4379;59.744;18.206;2023-05-21T15:41:24;21.50;95.70
8684;DHT22;4379;59.744;18.206;2023-05-21T15:43:55;21.40;95.10
8684;DHT22;4379;59.744;18.206;2023-05-21T15:46:22;21.20;96.20
8684;DHT22;4379;59.744;18.206;2023-05-21T15:48:50;21.00;96.60
8684;DHT22;4379;59.744;18.206;2023-05-21T15:51:17;20.80;96.90
8684;DHT22;4379;59.744;18.206;2023-05-21T15:53:46;20.70;96.80
8684;DHT22;4379;59.744;18.206;2023-05-21T15:56:13;20.70;97.10
8684;DHT22;4379;59.744;18.206;2023-05-21T15:58:41;20.90;97.80
8684;DHT22;4379;59.744;18.206;2023-05-21T16:01:08;21.00;96.30
8684;DHT22;4379;59.744;18.206;2023-05-21T16:03:36;20.90;96.10
8684;DHT22;4379;59.744;18.206;2023-05-21T16:06:03;20.80;96.90
8684;DHT22;4379;59.744;18.206;2023-05-21T16:08:33;20.70;97.00
8684;DHT22;4379;59.744;18.206;2023-05-21T16:11:00;20.50;97.00
8684;DHT22;4379;59.744;18.206;2023-05-21T16:13:31;20.60;97.50
8684;DHT22;4379;59.744;18.206;2023-05-21T16:15:58;20.50;97.00
8684;DHT22;4379;59.744;18.206;2023-05-21T16:18:26;20.30;97.30
8684;DHT22;4379;59.744;18.206;2023-05-21T16:20:57;20.20;97.00
8684;DHT22;4379;59.744;18.206;2023-05-21T16:23:24;20.00;97.10
8684;DHT22;4379;59.744;18.206;2023-05-21T16:25:52;20.00;96.80